Latest Weather Observations for Port Lincoln Airport

IDS60801

Issued at 10:31 pm CDT Tuesday 28 March 2017 (issued every 30 minutes, with the page automatically refreshed every 10 minutes)

About weather observations | Map of weather stations | Latest weather observations for SA | Other Formats
Station Details ID: 018192 Name: PORT LINCOLN AWS Lat: -34.60 Lon: 135.88 Height: 8.5 m
Data from the previous 72 hours. | See also: Recent months at Port Lincoln Airport
Date/Time
CDT
Temp
°C
App
Temp
°C
Dew
Point
°C
Rel
Hum
%
Delta-T
°C
Wind Press
QNH
hPa
Press
MSL
hPa
Rain since
9am
mm
Dir  Spd
km/h
Gust
km/h
Spd
kts
Gust
kts
28/10:30pm 14.2 13.5 11.4 83 1.5 NNW 6 7 3 4 1013.6 1013.6 0.0
28/10:00pm 15.6 14.6 12.4 81 1.8 NW 9 11 5 6 1013.5 1013.5 0.0
28/09:30pm 17.0 16.3 13.3 79 2.1 NNW 9 11 5 6 1013.5 1013.5 0.0
28/09:00pm 17.3 15.8 13.0 76 2.4 W 13 19 7 10 1013.5 1013.5 0.0
28/08:30pm 18.3 14.7 13.0 71 3.0 WNW 24 32 13 17 1013.4 1013.4 0.0
28/08:00pm 17.7 15.6 12.4 71 2.9 W 15 20 8 11 1013.2 1013.2 0.0
28/07:30pm 18.7 14.5 12.5 67 3.5 WNW 26 33 14 18 1013.1 1013.1 0.0
28/07:00pm 19.5 15.1 12.8 65 3.8 W 28 32 15 17 1013.2 1013.2 0.0
28/06:30pm 20.1 15.7 11.6 58 4.7 WNW 26 39 14 21 1013.0 1013.0 0.0
28/06:00pm 21.4 16.5 11.4 53 5.5 WNW 28 37 15 20 1013.1 1013.1 0.0
28/05:30pm 21.7 16.4 11.4 52 5.7 W 30 43 16 23 1013.1 1013.1 0.0
28/05:00pm 22.8 18.0 11.5 49 6.3 WNW 28 39 15 21 1013.2 1013.2 0.0
28/04:30pm 23.0 17.7 11.4 48 6.5 W 30 43 16 23 1013.3 1013.3 0.0
28/04:00pm 23.5 18.6 11.2 46 6.9 W 28 39 15 21 1013.5 1013.5 0.0
28/03:30pm 24.4 19.8 11.0 43 7.5 WNW 26 39 14 21 1013.4 1013.4 0.0
28/03:00pm 24.5 19.9 11.1 43 7.5 W 26 37 14 20 1013.6 1013.6 0.0
28/02:30pm 25.7 21.6 11.5 41 8.1 WNW 24 39 13 21 1013.5 1013.5 0.0
28/02:00pm 24.1 20.0 10.0 41 7.7 W 22 32 12 17 1013.8 1013.8 0.0
28/01:30pm 24.3 20.9 11.3 44 7.3 WNW 20 32 11 17 1014.2 1014.2 0.0
28/01:00pm 24.4 21.2 11.4 44 7.3 NW 19 26 10 14 1014.8 1014.8 0.0
28/12:30pm 23.7 20.1 10.7 44 7.2 WNW 20 32 11 17 1015.3 1015.3 0.0
28/12:00pm 22.2 18.4 11.3 50 6.1 W 22 32 12 17 1015.9 1015.9 0.0
28/11:30am 21.6 17.7 10.7 50 6.0 WNW 22 32 12 17 1016.2 1016.2 0.0
28/11:00am 20.9 17.4 11.0 53 5.4 WNW 20 28 11 15 1016.6 1016.6 0.0
28/10:30am 20.3 17.1 11.8 58 4.7 W 20 30 11 16 1016.7 1016.7 0.0
28/10:00am 19.8 17.2 12.1 61 4.3 WNW 17 24 9 13 1016.8 1016.8 0.0
28/09:30am 17.5 15.8 12.4 72 2.8 NNW 13 17 7 9 1016.7 1016.7 0.0
28/09:00am 15.5 14.2 12.4 82 1.7 NNW 11 15 6 8 1016.5 1016.5 0.0
28/08:30am 14.0 12.0 12.7 92 0.7 WNW 15 15 8 8 1016.4 1016.4 0.0
28/08:00am 12.2 10.5 11.1 93 0.6 NW 11 13 6 7 1016.3 1016.3 0.0
28/07:30am 11.9 10.0 10.5 91 0.7 NW 11 15 6 8 1016.1 1016.1 0.0
28/07:00am 12.2 10.8 10.8 91 0.7 WNW 9 11 5 6 1015.9 1015.9 0.0
28/06:30am 12.8 11.1 11.2 90 0.8 NNW 11 13 6 7 1015.9 1015.9 0.0
28/06:00am 13.5 12.1 12.2 92 0.7 NW 11 13 6 7 1015.9 1015.9 0.0
28/05:30am 12.3 10.6 11.2 93 0.6 NNW 11 13 6 7 1015.7 1015.7 0.0
28/05:00am 12.4 11.1 11.3 93 0.6 NNW 9 11 5 6 1015.5 1015.5 0.0
28/04:30am 12.6 10.2 11.3 92 0.7 WNW 15 17 8 9 1015.8 1015.8 0.0
28/04:00am 12.5 10.0 11.2 92 0.7 NW 15 17 8 9 1016.0 1016.0 0.0
28/03:30am 12.4 9.9 11.0 91 0.7 NW 15 17 8 9 1016.2 1016.2 0.0
28/03:00am 13.0 11.0 11.6 91 0.7 WNW 13 15 7 8 1016.2 1016.2 0.0
28/02:30am 13.0 11.0 11.4 90 0.8 NW 13 13 7 7 1016.4 1016.4 0.0
28/02:00am 13.4 11.1 11.6 89 1.0 WNW 15 17 8 9 1016.7 1016.7 0.0
28/01:30am 13.3 11.2 11.2 87 1.1 WNW 13 17 7 9 1016.9 1016.9 0.0
28/01:00am 14.4 12.3 12.3 87 1.1 WNW 15 17 8 9 1017.0 1017.0 0.0
28/12:30am 14.5 12.8 12.5 88 1.1 W 13 15 7 8 1017.1 1017.1 0.0
28/12:00am 13.4 11.7 11.3 87 1.1 WNW 11 13 6 7 1017.3 1017.3 0.0
 
Date/Time
CDT
Temp
°C
App
Temp
°C
Dew
Point
°C
Rel
Hum
%
Delta-T
°C
Wind Press
QNH
hPa
Press
MSL
hPa
Rain since
9am
mm
Dir  Spd
km/h
Gust
km/h
Spd
kts
Gust
kts
27/11:30pm 15.0 13.8 11.6 80 1.8 WNW 9 11 5 6 1017.3 1017.3 0.0
27/11:00pm 15.8 14.3 11.8 77 2.2 WNW 11 11 6 6 1017.3 1017.3 0.0
27/10:30pm 17.0 14.7 12.9 77 2.3 WSW 17 20 9 11 1017.3 1017.3 0.0
27/10:00pm 15.6 13.7 11.8 78 2.1 W 13 15 7 8 1017.3 1017.3 0.0
27/09:30pm 16.4 15.0 12.2 76 2.3 WNW 11 13 6 7 1017.0 1017.0 0.0
27/09:00pm 16.9 15.7 11.6 71 2.9 WSW 9 11 5 6 1016.7 1016.7 0.0
27/08:30pm 17.7 16.6 11.9 69 3.2 WSW 9 11 5 6 1016.3 1016.3 0.0
27/08:00pm 17.0 15.3 11.3 69 3.1 WSW 11 13 6 7 1016.1 1016.1 0.0
27/07:30pm 18.3 15.8 11.1 63 3.9 WSW 15 20 8 11 1016.0 1016.0 0.0
27/07:00pm 19.5 15.6 10.8 57 4.7 WSW 22 32 12 17 1015.7 1015.7 0.0
27/06:30pm 20.6 16.8 11.2 55 5.2 WSW 22 26 12 14 1015.4 1015.4 0.0
27/06:00pm 21.4 16.7 9.3 46 6.5 WSW 24 35 13 19 1015.3 1015.3 0.0
27/05:30pm 22.1 16.5 8.9 43 7.0 WSW 28 39 15 21 1015.1 1015.1 0.0
27/05:00pm 22.5 16.0 8.2 40 7.5 WSW 32 41 17 22 1015.1 1015.1 0.0
27/04:30pm 23.3 17.6 9.7 42 7.4 WSW 30 43 16 23 1015.0 1015.0 0.0
27/04:00pm 24.0 17.8 9.2 39 8.0 W 32 41 17 22 1015.0 1015.0 0.0
27/03:30pm 24.1 19.2 10.0 41 7.7 WSW 26 35 14 19 1015.1 1015.1 0.0
27/03:00pm 24.2 18.2 10.1 41 7.7 WSW 32 44 17 24 1015.2 1015.2 0.0
27/02:30pm 23.3 16.9 9.3 41 7.5 WSW 33 46 18 25 1015.4 1015.4 0.0
27/02:00pm 23.4 17.4 10.1 43 7.3 WSW 32 44 17 24 1015.6 1015.6 0.0
27/01:30pm 23.3 16.9 9.3 41 7.5 WSW 33 44 18 24 1015.6 1015.6 0.0
27/01:00pm 24.2 18.1 8.2 36 8.5 SW 30 44 16 24 1015.6 1015.6 0.0
27/12:30pm 23.8 18.8 8.2 37 8.3 WSW 24 41 13 22 1015.7 1015.7 0.0
27/12:00pm 24.1 18.5 11.4 45 7.1 WSW 32 44 17 24 1015.5 1015.5 0.0
27/11:30am 23.1 17.1 10.9 46 6.8 WSW 33 41 18 22 1015.3 1015.3 0.0
27/11:00am 21.8 15.3 10.3 48 6.3 WSW 35 46 19 25 1015.0 1015.0 0.0
27/10:30am 22.0 15.6 10.8 49 6.2 WSW 35 48 19 26 1014.9 1014.9 0.0
27/10:00am 21.3 15.1 11.3 53 5.5 WSW 35 48 19 26 1014.5 1014.5 0.0
27/09:30am 19.7 15.0 13.2 66 3.7 WSW 30 39 16 21 1014.1 1014.1 0.0
27/09:00am 18.8 14.9 13.2 70 3.2 W 26 35 14 19 1013.9 1013.9 0.2
27/08:30am 18.3 15.4 14.0 76 2.5 W 22 32 12 17 1013.4 1013.4 0.2
27/08:00am 18.0 15.1 14.1 78 2.2 W 22 32 12 17 1012.8 1012.8 0.2
27/07:30am 18.7 15.1 14.2 75 2.6 W 26 33 14 18 1012.3 1012.3 0.0
27/07:00am 18.8 16.3 14.1 74 2.7 W 20 28 11 15 1012.0 1012.0 0.0
27/06:30am 19.0 15.2 13.6 71 3.1 W 26 32 14 17 1011.2 1011.2 0.0
27/06:00am 19.2 17.3 15.1 77 2.4 W 19 26 10 14 1010.3 1010.3 0.0
27/05:30am 19.2 15.9 14.9 76 2.5 W 26 35 14 19 1009.7 1009.7 0.0
27/05:00am 19.5 15.6 14.5 73 2.9 WSW 28 39 15 21 1009.0 1009.0 0.0
27/04:30am 19.6 14.5 14.8 74 2.8 W 35 46 19 25 1008.6 1008.6 0.0
27/04:00am 19.9 17.1 17.3 85 1.6 WSW 28 39 15 21 1008.2 1008.2 0.0
27/03:30am 20.2 17.7 17.0 82 1.9 WSW 26 35 14 19 1008.1 1008.1 0.0
27/03:00am 20.8 17.4 17.6 82 2.0 WSW 32 44 17 24 1007.7 1007.7 0.0
27/02:30am 21.1 16.4 17.7 81 2.1 WSW 39 52 21 28 1007.0 1007.0 0.0
27/02:02am 21.2 18.2 17.8 81 2.1 WSW 30 48 16 26 1007.1 1007.1 0.0
27/02:00am 21.3 18.0 17.9 81 2.1 WSW 32 48 17 26 1007.2 1007.2 0.0
27/01:58am 21.3 18.4 17.9 81 2.1 WSW 30 43 16 23 1007.3 1007.3 0.0
27/01:30am 21.6 19.9 18.2 81 2.1 WSW 24 43 13 23 1007.5 1007.5 0.0
27/01:03am 21.6 19.2 18.2 81 2.1 WSW 28 46 15 25 1006.6 1006.6 0.0
27/01:00am 21.7 18.9 18.3 81 2.1 WSW 30 50 16 27 1006.4 1006.4 0.0
27/12:53am 21.8 18.1 18.4 81 2.1 WSW 35 54 19 29 1006.4 1006.4 0.0
27/12:30am 22.4 17.0 18.0 76 2.7 W 43 56 23 30 1005.4 1005.4 0.0
27/12:00am 23.4 16.8 17.4 69 3.7 W 48 63 26 34 1004.7 1004.7 0.0
 
Date/Time
CDT
Temp
°C
App
Temp
°C
Dew
Point
°C
Rel
Hum
%
Delta-T
°C
Wind Press
QNH
hPa
Press
MSL
hPa
Rain since
9am
mm
Dir  Spd
km/h
Gust
km/h
Spd
kts
Gust
kts
26/11:30pm 25.2 20.4 15.5 55 5.9 WSW 35 48 19 26 1004.5 1004.5 0.0
26/11:00pm 28.7 24.1 13.4 39 9.1 W 30 46 16 25 1004.5 1004.5 0.0
26/10:50pm 29.7 26.5 13.0 35 9.9 WNW 22 37 12 20 1004.4 1004.4 0.0
26/10:30pm 28.2 27.3 12.5 37 9.2 WNW 9 15 5 8 1004.1 1004.1 0.0
26/10:00pm 30.4 28.6 13.2 35 10.2 N 15 24 8 13 1003.8 1003.8 0.0
26/09:53pm 29.1 29.5 15.2 42 8.5 N 7 22 4 12 1003.8 1003.8 0.0
26/09:30pm 23.9 26.5 17.4 67 4.0 CALM 0 7 0 4 1003.8 1003.8 0.0
26/09:00pm 23.8 26.4 18.4 72 3.4 SSE 2 6 1 3 1003.9 1003.9 0.0
26/08:30pm 24.3 27.5 18.9 72 3.4 CALM 0 0 0 0 1004.0 1004.0 0.0
26/08:00pm 24.4 26.4 18.8 71 3.6 NE 6 7 3 4 1004.1 1004.1 0.0
26/07:30pm 25.3 27.1 18.7 67 4.2 NE 7 11 4 6 1004.2 1004.2 0.0
26/07:00pm 26.0 26.5 18.4 63 4.8 ENE 13 17 7 9 1004.5 1004.5 0.0
26/06:30pm 27.0 26.2 18.0 58 5.7 ENE 19 24 10 13 1004.6 1004.6 0.0
26/06:00pm 28.3 26.9 16.6 49 7.3 NE 19 24 10 13 1004.7 1004.7 0.0
26/05:30pm 26.9 24.9 17.4 56 6.0 ENE 24 30 13 16 1005.0 1005.0 0.0
26/05:00pm 26.4 24.8 17.5 58 5.6 ENE 22 28 12 15 1005.4 1005.4 0.0
26/04:30pm 28.1 26.4 18.2 55 6.3 ENE 24 28 13 15 1005.5 1005.5 0.0
26/04:00pm 27.4 25.1 18.4 58 5.7 ENE 28 32 15 17 1005.8 1005.8 0.0
26/03:30pm 25.9 24.5 18.8 65 4.5 ENE 24 33 13 18 1006.3 1006.3 0.0
26/03:00pm 25.8 24.8 19.7 69 4.0 ENE 24 30 13 16 1007.1 1007.1 0.0
26/02:30pm 24.8 24.2 19.8 74 3.2 ENE 22 28 12 15 1007.8 1007.8 0.0
26/02:00pm 23.8 23.5 19.5 77 2.8 ENE 20 24 11 13 1008.9 1008.9 0.0
26/01:30pm 23.2 23.5 19.6 80 2.3 ENE 17 20 9 11 1009.6 1009.6 0.0
26/01:00pm 23.7 23.4 19.2 76 2.9 ENE 19 22 10 12 1010.3 1010.3 0.0
26/12:30pm 23.0 23.1 19.2 79 2.4 ENE 17 20 9 11 1010.8 1010.8 0.0
26/12:00pm 23.5 24.2 20.4 83 2.0 E 17 20 9 11 1011.0 1011.0 0.0
26/11:30am 23.0 23.8 19.8 82 2.1 E 15 19 8 10 1011.7 1011.7 0.0
26/11:19am 23.0 23.7 19.6 81 2.2 E 15 19 8 10 1011.9 1011.9 0.0
26/11:00am 23.4 24.7 20.2 82 2.1 E 13 19 7 10 1012.0 1012.0 0.0
26/10:30am 22.2 23.5 20.1 88 1.4 ESE 13 19 7 10 1011.9 1011.9 0.0
26/10:00am 21.8 22.9 20.4 92 0.9 ESE 15 17 8 9 1011.9 1011.9 0.0
26/09:37am 21.8 23.8 20.8 94 0.6 SE 11 15 6 8 1012.1 1012.1 0.0
26/09:30am 21.6 23.5 20.6 94 0.6 SE 11 13 6 7 1012.1 1012.1 0.0
26/09:00am 21.2 23.8 20.4 95 0.5 SE 7 9 4 5 1011.9 1011.9 0.2
26/08:30am 20.8 24.6 20.1 96 0.4 CALM 0 0 0 0 1011.7 1011.7 0.2
26/08:00am 20.4 22.8 19.7 96 0.4 SE 6 7 3 4 1011.6 1011.6 0.2
26/07:30am 20.2 22.4 19.5 96 0.4 SSE 7 9 4 5 1011.4 1011.4 0.2
26/07:00am 19.9 22.8 19.1 95 0.5 SSE 2 7 1 4 1011.3 1011.3 0.2
26/06:30am 19.9 21.9 19.1 95 0.5 SE 7 9 4 5 1011.0 1011.0 0.2
26/06:05am 20.2 22.3 19.4 95 0.5 E 7 9 4 5 1010.8 1010.8 0.2
26/06:00am 20.1 22.2 19.3 95 0.5 E 7 9 4 5 1010.8 1010.8 0.2
26/05:30am 20.0 23.3 19.0 94 0.6 CALM 0 0 0 0 1010.6 1010.6 0.2
26/05:00am 19.8 22.2 18.8 94 0.6 NE 4 7 2 4 1010.5 1010.5 0.2
26/04:30am 19.7 22.9 18.9 95 0.5 CALM 0 6 0 3 1010.6 1010.6 0.2
26/04:28am 19.7 22.9 18.9 95 0.5 CALM 0 0 0 0 1010.5 1010.5 0.2
26/04:00am 19.6 21.4 18.8 95 0.5 NNE 7 11 4 6 1010.5 1010.5 0.2
26/03:30am 19.4 21.1 18.6 95 0.5 NNE 7 9 4 5 1011.0 1011.0 0.2
26/03:00am 19.3 20.6 18.5 95 0.5 N 9 11 5 6 1012.0 1012.0 0.2
26/02:30am 19.4 21.2 18.4 94 0.6 N 6 9 3 5 1012.6 1012.6 0.2
26/02:00am 19.2 22.1 18.2 94 0.6 CALM 0 0 0 0 1013.0 1013.0 0.2
26/01:30am 19.3 22.2 18.1 93 0.7 CALM 0 0 0 0 1013.4 1013.4 0.0
26/01:00am 19.3 22.1 18.0 92 0.8 CALM 0 0 0 0 1013.9 1013.9 0.0
26/12:38am 18.9 21.5 17.6 92 0.8 CALM 0 0 0 0 1014.0 1014.0 0.0
26/12:30am 18.9 21.5 17.6 92 0.8 CALM 0 6 0 3 1014.1 1014.1 0.0
26/12:00am 19.1 21.7 17.6 91 0.9 CALM 0 0 0 0 1014.3 1014.3 0.0
 
Date/Time
CDT
Temp
°C
App
Temp
°C
Dew
Point
°C
Rel
Hum
%
Delta-T
°C
Wind Press
QNH
hPa
Press
MSL
hPa
Rain since
9am
mm
Dir  Spd
km/h
Gust
km/h
Spd
kts
Gust
kts
25/11:48pm 19.2 21.9 17.7 91 0.9 CALM 0 0 0 0 1014.3 1014.3 0.0
25/11:30pm 19.2 21.5 17.7 91 0.9 SE 2 6 1 3 1014.3 1014.3 0.0
25/11:00pm 19.3 20.3 17.8 91 0.9 ESE 9 11 5 6 1014.3 1014.3 0.0

Other Formats:

Comma delimited format used in spreadsheet applications
http://www.bom.gov.au/fwo/IDS60801/IDS60801.95661.axf

JavaScript Object Notation format (JSON) in row-major order
http://www.bom.gov.au/fwo/IDS60801/IDS60801.95661.json